Terminal Aerodrome Forecast
Issued by NWS

Home | Current Version | Previous Version | Graphics & Text | Print | Product List | Glossary On
Versions: 1 2 3 4 5 6 7 8 9 10 11 12 13 14 15 16 17 18 19 20 21 22 23 24 25 26 27 28 29 30 31
897
FTUS43 KABR 152158 AAB
TAFATY
TAF AMD
KATY 152158Z 1522/1618 12011KT P6SM SCT080 BKN090
     FM160400 14008KT P6SM SHRA OVC020
     FM160700 15007KT 6SM BR OVC015
     FM161300 00000KT 5SM BR OVC003
     FM161500 00000KT P6SM OVC008=

USA.gov is the U.S. government's official web portal to all federal, state and local government web resources and services.